createdAt,value
2018-08-10T00:00:18.490Z,100016.73
2018-08-10T00:00:49.648Z,100010.28
2018-08-10T00:01:20.801Z,100016.36
2018-08-10T00:01:51.924Z,100015.75
2018-08-10T00:02:23.044Z,100014.42
2018-08-10T00:02:54.159Z,100011.19
2018-08-10T00:03:25.263Z,100014.22
2018-08-10T00:03:56.423Z,100016.89
2018-08-10T00:04:27.576Z,100013.47
2018-08-10T00:04:58.749Z,100020.13
2018-08-10T00:05:29.937Z,100015.18
2018-08-10T00:06:01.062Z,100010.23
2018-08-10T00:06:32.368Z,100013.36
2018-08-10T00:07:03.507Z,100017.84
2018-08-10T00:07:34.677Z,100020.50
2018-08-10T00:08:05.945Z,100018.91
2018-08-10T00:08:37.117Z,100016.19
2018-08-10T00:09:08.898Z,100012.19
2018-08-10T00:09:40.897Z,100015.08
2018-08-10T00:10:12.084Z,100021.73
2018-08-10T00:10:43.195Z,100016.98
2018-08-10T00:11:14.303Z,100010.94
2018-08-10T00:11:45.451Z,100015.52
2018-08-10T00:12:16.679Z,100018.05
2018-08-10T00:12:47.796Z,100016.72
2018-08-10T00:13:18.914Z,100019.12
2018-08-10T00:13:50.028Z,100015.44
2018-08-10T00:14:21.268Z,100015.82
2018-08-10T00:14:52.389Z,100017.06
2018-08-10T00:15:23.553Z,100020.95
2018-08-10T00:15:54.679Z,100023.72
2018-08-10T00:16:25.791Z,100019.34
2018-08-10T00:16:56.945Z,100021.62
2018-08-10T00:17:28.111Z,100024.14
2018-08-10T00:17:59.281Z,100029.54
2018-08-10T00:18:30.466Z,100028.59
2018-08-10T00:19:01.588Z,100026.42
2018-08-10T00:19:32.700Z,100029.80
2018-08-10T00:20:03.809Z,100024.67
2018-08-10T00:20:34.987Z,100027.97
2018-08-10T00:21:06.163Z,100026.79
2018-08-10T00:21:37.310Z,100023.64
2018-08-10T00:22:08.420Z,100029.60
2018-08-10T00:22:39.531Z,100037.12
2018-08-10T00:23:10.748Z,100029.14
2018-08-10T00:23:41.871Z,100026.10
2018-08-10T00:24:13.041Z,100033.02
2018-08-10T00:24:44.314Z,100030.24
2018-08-10T00:25:15.484Z,100039.36
2018-08-10T00:25:46.608Z,100038.37
2018-08-10T00:26:17.833Z,100034.38
2018-08-10T00:26:48.951Z,100037.04
2018-08-10T00:27:20.140Z,100041.41
2018-08-10T00:27:51.360Z,100036.09
2018-08-10T00:28:22.507Z,100041.78
2018-08-10T00:28:53.619Z,100039.62
2018-08-10T00:29:24.732Z,100037.42
2018-08-10T00:29:55.883Z,100040.31
2018-08-10T00:30:27.117Z,100040.87
2018-08-10T00:30:58.228Z,100042.44
2018-08-10T00:31:29.344Z,100036.09
2018-08-10T00:32:00.487Z,100040.55
2018-08-10T00:32:31.665Z,100040.55
2018-08-10T00:33:02.845Z,100037.43
2018-08-10T00:33:33.993Z,100040.73
2018-08-10T00:34:05.100Z,100036.36
2018-08-10T00:34:36.291Z,100038.45
2018-08-10T00:35:07.436Z,100041.83
2018-08-10T00:35:38.553Z,100040.31
2018-08-10T00:36:09.719Z,100034.34
2018-08-10T00:36:40.840Z,100039.09
2018-08-10T00:37:11.950Z,100032.33
2018-08-10T00:37:43.117Z,100037.91
2018-08-10T00:38:14.279Z,100035.13
2018-08-10T00:38:45.428Z,100032.63
2018-08-10T00:39:16.547Z,100030.95
2018-08-10T00:39:47.716Z,100034.56
2018-08-10T00:40:18.843Z,100030.08
2018-08-10T00:40:50.013Z,100033.75
2018-08-10T00:41:21.185Z,100031.47
2018-08-10T00:41:52.299Z,100027.10
2018-08-10T00:42:23.468Z,100028.98
2018-08-10T00:42:54.598Z,100034.82
2018-08-10T00:43:25.854Z,100029.00
2018-08-10T00:43:56.977Z,100029.77
2018-08-10T00:44:28.096Z,100025.77
2018-08-10T00:44:59.274Z,100026.98
2018-08-10T00:45:30.436Z,100030.14
2018-08-10T00:46:01.561Z,100031.67
2018-08-10T00:46:32.783Z,100029.96
2018-08-10T00:47:03.913Z,100032.28
2018-08-10T00:47:35.028Z,100030.34
2018-08-10T00:48:06.424Z,100033.37
2018-08-10T00:48:37.601Z,100031.67
2018-08-10T00:49:08.852Z,100030.19
2018-08-10T00:49:39.980Z,100030.08
2018-08-10T00:50:11.131Z,100031.20
2018-08-10T00:50:42.256Z,100028.05
2018-08-10T00:51:13.362Z,100031.84
2018-08-10T00:51:44.533Z,100026.87
2018-08-10T00:52:15.648Z,100030.31
2018-08-10T00:52:46.761Z,100032.02
2018-08-10T00:53:17.881Z,100030.58
2018-08-10T00:53:49.107Z,100031.91
2018-08-10T00:54:20.236Z,100026.84
2018-08-10T00:54:51.346Z,100028.75
2018-08-10T00:55:22.548Z,100030.09
2018-08-10T00:55:53.729Z,100028.03
2018-08-10T00:56:24.835Z,100028.15
2018-08-10T00:56:56.012Z,100027.86
2018-08-10T00:57:27.130Z,100034.13
2018-08-10T00:57:58.243Z,100028.55
2018-08-10T00:58:29.423Z,100034.06
2018-08-10T00:59:00.580Z,100027.41
2018-08-10T00:59:31.892Z,100029.70
2018-08-10T01:00:03.027Z,100031.98
2018-08-10T01:00:34.202Z,100031.26
2018-08-10T01:01:05.366Z,100030.39
2018-08-10T01:01:36.545Z,100035.36
2018-08-10T01:02:07.713Z,100028.16
2018-08-10T01:02:38.824Z,100033.21
2018-08-10T01:03:10.002Z,100033.17
2018-08-10T01:03:41.185Z,100031.89
2018-08-10T01:04:12.365Z,100030.61
2018-08-10T01:04:43.472Z,100024.30
2018-08-10T01:05:14.646Z,100031.02
2018-08-10T01:05:45.810Z,100029.55
2018-08-10T01:06:16.985Z,100038.09
2018-08-10T01:06:48.159Z,100033.76
2018-08-10T01:07:19.332Z,100031.55
2018-08-10T01:07:50.496Z,100029.96
2018-08-10T01:08:21.680Z,100029.31
2018-08-10T01:08:52.861Z,100037.59
2018-08-10T01:09:24.031Z,100035.42
2018-08-10T01:09:55.199Z,100033.06
2018-08-10T01:10:26.308Z,100034.78
2018-08-10T01:10:57.475Z,100030.25
2018-08-10T01:11:28.591Z,100037.01
2018-08-10T01:11:59.767Z,100033.02
2018-08-10T01:12:31.000Z,100039.17
2018-08-10T01:13:02.180Z,100037.77
2018-08-10T01:13:33.354Z,100037.39
2018-08-10T01:14:04.487Z,100029.88
2018-08-10T01:14:35.717Z,100035.19
2018-08-10T01:15:06.900Z,100033.52
2018-08-10T01:15:38.072Z,100039.17
2018-08-10T01:16:09.243Z,100036.17
2018-08-10T01:16:40.405Z,100037.12
2018-08-10T01:17:11.548Z,100037.23
2018-08-10T01:17:42.721Z,100033.70
2018-08-10T01:18:13.842Z,100038.06
2018-08-10T01:18:45.005Z,100035.41
2018-08-10T01:19:16.170Z,100038.06
2018-08-10T01:19:47.396Z,100041.48
2018-08-10T01:20:18.573Z,100031.58
2018-08-10T01:20:49.741Z,100032.53
2018-08-10T01:21:20.903Z,100033.67
2018-08-10T01:21:52.081Z,100033.18
2018-08-10T01:22:23.373Z,100031.95
2018-08-10T01:22:54.552Z,100031.95
2018-08-10T01:23:25.708Z,100036.06
2018-08-10T01:23:56.822Z,100035.68
2018-08-10T01:24:28.063Z,100033.86
2018-08-10T01:24:59.259Z,100031.13
2018-08-10T01:25:30.620Z,100036.44
2018-08-10T01:26:01.740Z,100025.73
2018-08-10T01:26:32.858Z,100032.10
2018-08-10T01:27:04.056Z,100031.27
2018-08-10T01:27:35.762Z,100026.78
2018-08-10T01:28:06.884Z,100031.72
2018-08-10T01:28:38.062Z,100025.57
2018-08-10T01:29:09.137Z,100033.54
2018-08-10T01:29:40.361Z,100026.25
2018-08-10T01:30:11.601Z,100025.22
2018-08-10T01:30:42.816Z,100025.59
2018-08-10T01:31:14.014Z,100023.32
2018-08-10T01:31:45.121Z,100025.38
2018-08-10T01:32:16.280Z,100026.70
2018-08-10T01:32:47.391Z,100021.98
2018-08-10T01:33:18.505Z,100025.03
2018-08-10T01:33:49.652Z,100026.09
2018-08-10T01:34:20.811Z,100023.50
2018-08-10T01:34:51.947Z,100023.62
2018-08-10T01:35:23.136Z,100022.39
2018-08-10T01:35:54.468Z,100023.56
2018-08-10T01:36:25.587Z,100025.46
2018-08-10T01:36:56.765Z,100022.98
2018-08-10T01:37:28.085Z,100023.59
2018-08-10T01:37:59.200Z,100022.53
2018-08-10T01:38:30.446Z,100020.71
2018-08-10T01:39:01.618Z,100022.91
2018-08-10T01:39:32.801Z,100026.02
2018-08-10T01:40:03.973Z,100024.31
2018-08-10T01:40:35.187Z,100024.31
2018-08-10T01:41:06.295Z,100026.25
2018-08-10T01:41:37.528Z,100028.14
2018-08-10T01:42:08.675Z,100024.38
2018-08-10T01:42:39.788Z,100028.36
2018-08-10T01:43:10.952Z,100027.21
2018-08-10T01:43:42.186Z,100029.81
2018-08-10T01:44:13.303Z,100031.21
2018-08-10T01:44:44.416Z,100029.16
2018-08-10T01:45:15.636Z,100035.14
2018-08-10T01:45:46.756Z,100036.30
2018-08-10T01:46:17.936Z,100036.38
2018-08-10T01:46:49.045Z,100037.70
2018-08-10T01:47:20.314Z,100040.57
2018-08-10T01:47:51.435Z,100039.34
2018-08-10T01:48:22.603Z,100039.70
2018-08-10T01:48:53.826Z,100038.86
2018-08-10T01:49:25.092Z,100034.88
2018-08-10T01:49:56.223Z,100039.91
2018-08-10T01:50:27.459Z,100036.78
2018-08-10T01:50:58.686Z,100035.63
2018-08-10T01:51:29.803Z,100043.21
2018-08-10T01:52:00.964Z,100042.16
2018-08-10T01:52:32.144Z,100041.22
2018-08-10T01:53:03.348Z,100043.77
2018-08-10T01:53:34.525Z,100037.62
2018-08-10T01:54:05.688Z,100041.50
2018-08-10T01:54:36.871Z,100040.00
2018-08-10T01:55:07.984Z,100037.91
2018-08-10T01:55:39.114Z,100039.83
2018-08-10T01:56:10.331Z,100041.93
2018-08-10T01:56:41.504Z,100044.76
2018-08-10T01:57:12.617Z,100041.16
2018-08-10T01:57:43.875Z,100041.93
2018-08-10T01:58:15.000Z,100041.55
2018-08-10T01:58:46.176Z,100045.91
2018-08-10T01:59:17.401Z,100044.48
2018-08-10T01:59:48.576Z,100040.39
2018-08-10T02:00:19.755Z,100045.14
2018-08-10T02:00:50.937Z,100039.06
2018-08-10T02:01:22.116Z,100037.46
2018-08-10T02:01:53.223Z,100040.98
2018-08-10T02:02:24.454Z,100036.13
2018-08-10T02:02:55.608Z,100042.38
2018-08-10T02:03:26.727Z,100037.19
2018-08-10T02:03:57.891Z,100040.78
2018-08-10T02:04:29.048Z,100038.34
2018-08-10T02:05:00.231Z,100040.22
2018-08-10T02:05:31.393Z,100042.11
2018-08-10T02:06:02.683Z,100038.72
2018-08-10T02:06:33.807Z,100040.16
2018-08-10T02:07:04.964Z,100040.22
2018-08-10T02:07:36.133Z,100041.09
2018-08-10T02:08:07.354Z,100045.53
2018-08-10T02:08:38.549Z,100044.80
2018-08-10T02:09:09.664Z,100043.09
2018-08-10T02:09:40.829Z,100046.58
2018-08-10T02:10:11.950Z,100042.88
2018-08-10T02:10:43.059Z,100046.86
2018-08-10T02:11:14.250Z,100043.36
2018-08-10T02:11:45.424Z,100042.31
2018-08-10T02:12:16.580Z,100043.44
2018-08-10T02:12:47.748Z,100038.44
2018-08-10T02:13:18.908Z,100038.13
2018-08-10T02:13:50.024Z,100038.51
2018-08-10T02:14:21.294Z,100045.91
2018-08-10T02:14:52.477Z,100042.48
2018-08-10T02:15:23.599Z,100045.25
2018-08-10T02:15:54.761Z,100047.91
2018-08-10T02:16:25.896Z,100045.25
2018-08-10T02:16:57.104Z,100045.63
2018-08-10T02:17:28.285Z,100048.18
2018-08-10T02:17:59.395Z,100046.75
2018-08-10T02:18:30.557Z,100050.17
2018-08-10T02:19:01.694Z,100048.73
2018-08-10T02:19:32.804Z,100050.17
2018-08-10T02:20:03.977Z,100050.17
2018-08-10T02:20:35.124Z,100049.41
2018-08-10T02:21:06.288Z,100056.53
2018-08-10T02:21:37.476Z,100051.88
2018-08-10T02:22:08.596Z,100061.27
2018-08-10T02:22:39.764Z,100057.02
2018-08-10T02:23:10.926Z,100057.19
2018-08-10T02:23:42.106Z,100061.17
2018-08-10T02:24:13.242Z,100058.23
2018-08-10T02:24:44.502Z,100056.42
2018-08-10T02:25:15.623Z,100056.53
2018-08-10T02:25:46.775Z,100055.58
2018-08-10T02:26:17.949Z,100056.91
2018-08-10T02:26:49.124Z,100057.08
2018-08-10T02:27:20.235Z,100056.80
2018-08-10T02:27:51.500Z,100056.52
2018-08-10T02:28:22.663Z,100058.23
2018-08-10T02:28:53.828Z,100058.34
2018-08-10T02:29:25.034Z,100059.17
2018-08-10T02:29:56.148Z,100053.97
2018-08-10T02:30:27.301Z,100057.50
2018-08-10T02:30:58.476Z,100050.27
2018-08-10T02:31:29.648Z,100051.98
2018-08-10T02:32:00.877Z,100055.30
2018-08-10T02:32:31.998Z,100053.59
2018-08-10T02:33:03.152Z,100056.73
2018-08-10T02:33:34.322Z,100056.34
2018-08-10T02:34:05.556Z,100056.34
2018-08-10T02:34:36.692Z,100059.00
2018-08-10T02:35:07.846Z,100058.23
2018-08-10T02:35:39.008Z,100056.80
2018-08-10T02:36:10.192Z,100058.23
2018-08-10T02:36:41.339Z,100057.40
2018-08-10T02:37:12.452Z,100059.17
2018-08-10T02:37:43.616Z,100057.40
2018-08-10T02:38:14.809Z,100059.95
2018-08-10T02:38:45.976Z,100055.86
2018-08-10T02:39:17.217Z,100057.39
2018-08-10T02:39:48.333Z,100050.65
2018-08-10T02:40:19.504Z,100060.04
2018-08-10T02:40:50.689Z,100059.30
2018-08-10T02:41:21.863Z,100053.33
2018-08-10T02:41:52.994Z,100059.67
2018-08-10T02:42:24.734Z,100057.30
2018-08-10T02:42:55.969Z,100056.07
2018-08-10T02:43:27.093Z,100059.77
2018-08-10T02:43:58.266Z,100059.00
2018-08-10T02:44:29.476Z,100061.36
2018-08-10T02:45:00.650Z,100056.61
2018-08-10T02:45:31.764Z,100056.52
2018-08-10T02:46:02.948Z,100060.42
2018-08-10T02:46:34.109Z,100057.00
2018-08-10T02:47:05.274Z,100054.45
2018-08-10T02:47:36.408Z,100059.82
2018-08-10T02:48:07.614Z,100054.97
2018-08-10T02:48:38.840Z,100060.28
2018-08-10T02:49:09.960Z,100054.97
2018-08-10T02:49:41.064Z,100058.22
2018-08-10T02:50:12.197Z,100054.53
2018-08-10T02:50:43.370Z,100051.22
2018-08-10T02:51:14.490Z,100054.64
2018-08-10T02:51:45.696Z,100054.09
2018-08-10T02:52:16.823Z,100053.98
2018-08-10T02:52:47.981Z,100050.67
2018-08-10T02:53:19.100Z,100051.03
2018-08-10T02:53:50.221Z,100055.01
2018-08-10T02:54:21.392Z,100058.63
2018-08-10T02:54:52.516Z,100053.40
2018-08-10T02:55:23.683Z,100054.44
2018-08-10T02:55:54.880Z,100058.06
2018-08-10T02:56:26.060Z,100061.07
2018-08-10T02:56:57.317Z,100060.79
2018-08-10T02:57:28.436Z,100062.50
2018-08-10T02:57:59.609Z,100061.56
2018-08-10T02:58:30.730Z,100061.56
2018-08-10T02:59:01.907Z,100061.66
2018-08-10T02:59:33.017Z,100060.72
2018-08-10T03:00:04.230Z,100061.27
2018-08-10T03:00:35.400Z,100061.73
2018-08-10T03:01:06.522Z,100060.05
2018-08-10T03:01:37.693Z,100066.20
2018-08-10T03:02:08.905Z,100060.89
2018-08-10T03:02:40.071Z,100060.50
2018-08-10T03:03:11.214Z,100062.70
2018-08-10T03:03:42.326Z,100065.81
2018-08-10T03:04:13.493Z,100066.20
2018-08-10T03:04:44.681Z,100064.58
2018-08-10T03:05:15.857Z,100061.45
2018-08-10T03:05:46.985Z,100061.45
2018-08-10T03:06:18.191Z,100056.73
2018-08-10T03:06:49.312Z,100058.61
2018-08-10T03:07:20.420Z,100054.63
2018-08-10T03:07:51.637Z,100058.71
2018-08-10T03:08:22.816Z,100060.14
2018-08-10T03:08:53.919Z,100053.13
2018-08-10T03:09:25.094Z,100054.03
2018-08-10T03:09:56.205Z,100057.10
2018-08-10T03:10:27.367Z,100062.41
2018-08-10T03:10:58.476Z,100060.28
2018-08-10T03:11:29.627Z,100056.78
2018-08-10T03:12:00.742Z,100059.27
2018-08-10T03:12:31.851Z,100061.81
2018-08-10T03:13:03.010Z,100060.98
2018-08-10T03:13:34.156Z,100059.75
2018-08-10T03:14:05.384Z,100064.12
2018-08-10T03:14:36.573Z,100065.80
2018-08-10T03:15:07.688Z,100062.20
2018-08-10T03:15:38.892Z,100064.78
2018-08-10T03:16:10.072Z,100068.28
2018-08-10T03:16:41.196Z,100070.17
2018-08-10T03:17:12.308Z,100064.31
2018-08-10T03:17:43.517Z,100063.38
2018-08-10T03:18:14.666Z,100063.72
2018-08-10T03:18:45.888Z,100065.33
2018-08-10T03:19:17.063Z,100063.55
2018-08-10T03:19:48.249Z,100064.88
2018-08-10T03:20:19.411Z,100061.56
2018-08-10T03:20:50.686Z,100057.30
2018-08-10T03:21:21.808Z,100061.83
2018-08-10T03:21:52.972Z,100063.55
2018-08-10T03:22:24.147Z,100062.11
2018-08-10T03:22:55.319Z,100059.95
2018-08-10T03:23:26.496Z,100058.23
2018-08-10T03:23:57.642Z,100065.81
2018-08-10T03:24:28.772Z,100060.61
2018-08-10T03:24:59.943Z,100066.30
2018-08-10T03:25:31.128Z,100062.77
2018-08-10T03:26:02.325Z,100067.34
2018-08-10T03:26:33.588Z,100068.77
2018-08-10T03:27:04.778Z,100065.06
2018-08-10T03:27:35.890Z,100065.97
2018-08-10T03:28:07.052Z,100070.42
2018-08-10T03:28:40.193Z,100071.20
2018-08-10T03:29:11.316Z,100066.77
2018-08-10T03:29:42.491Z,100071.09
2018-08-10T03:30:13.680Z,100073.84
2018-08-10T03:30:44.855Z,100069.77
2018-08-10T03:31:16.150Z,100071.48
2018-08-10T03:31:47.329Z,100066.56
2018-08-10T03:32:18.555Z,100074.91
2018-08-10T03:32:49.781Z,100073.97
2018-08-10T03:33:20.957Z,100069.89
2018-08-10T03:33:52.069Z,100072.05
2018-08-10T03:34:23.253Z,100068.46
2018-08-10T03:34:54.437Z,100069.69
2018-08-10T03:35:25.604Z,100068.58
2018-08-10T03:35:56.826Z,100049.81
2018-08-10T03:36:28.031Z,100068.59
2018-08-10T03:36:59.143Z,100069.98
2018-08-10T03:37:30.321Z,100071.14
2018-08-10T03:38:01.494Z,100075.69
2018-08-10T03:38:32.676Z,100072.83
2018-08-10T03:39:03.828Z,100075.03
2018-08-10T03:39:34.944Z,100078.52
2018-08-10T03:40:06.121Z,100069.79
2018-08-10T03:40:37.278Z,100072.93
2018-08-10T03:41:08.395Z,100072.65
2018-08-10T03:41:39.578Z,100073.59
2018-08-10T03:42:10.743Z,100072.65
2018-08-10T03:42:41.863Z,100074.36
2018-08-10T03:43:12.976Z,100077.84
2018-08-10T03:43:44.095Z,100080.89
2018-08-10T03:44:15.212Z,100072.38
2018-08-10T03:44:46.336Z,100076.05
2018-08-10T03:45:17.509Z,100078.70
2018-08-10T03:45:48.621Z,100073.88
2018-08-10T03:46:19.767Z,100082.67
2018-08-10T03:46:50.936Z,100081.17
2018-08-10T03:47:22.061Z,100078.52
2018-08-10T03:47:53.228Z,100081.17
2018-08-10T03:48:24.453Z,100079.36
2018-08-10T03:48:55.563Z,100076.80
2018-08-10T03:49:26.672Z,100083.05
2018-08-10T03:49:57.941Z,100078.34
2018-08-10T03:50:29.141Z,100077.84
2018-08-10T03:51:00.253Z,100079.45
2018-08-10T03:51:31.470Z,100082.88
2018-08-10T03:52:02.622Z,100079.29
2018-08-10T03:52:33.809Z,100081.34
2018-08-10T03:53:04.984Z,100083.83
2018-08-10T03:53:36.095Z,100076.43
2018-08-10T03:54:07.204Z,100079.92
2018-08-10T03:54:38.317Z,100077.55
2018-08-10T03:55:09.430Z,100076.80
2018-08-10T03:55:40.545Z,100080.39
2018-08-10T03:56:11.757Z,100080.06
2018-08-10T03:56:42.941Z,100082.13
2018-08-10T03:57:14.089Z,100079.43
2018-08-10T03:57:45.260Z,100076.48
2018-08-10T03:58:16.380Z,100071.17
2018-08-10T03:58:47.491Z,100074.31
2018-08-10T03:59:18.662Z,100079.92
2018-08-10T03:59:49.798Z,100080.86
2018-08-10T04:00:20.902Z,100078.20
2018-08-10T04:00:52.126Z,100077.45
2018-08-10T04:01:23.289Z,100082.48
2018-08-10T04:01:54.492Z,100083.36
2018-08-10T04:02:25.677Z,100076.98
2018-08-10T04:02:56.909Z,100079.54
2018-08-10T04:03:28.076Z,100087.33
2018-08-10T04:03:59.199Z,100085.67
2018-08-10T04:04:30.371Z,100083.28
2018-08-10T04:05:01.598Z,100079.80
2018-08-10T04:05:32.733Z,100079.91
2018-08-10T04:06:03.844Z,100082.17
2018-08-10T04:06:35.005Z,100087.87
2018-08-10T04:07:06.225Z,100082.56
2018-08-10T04:07:37.401Z,100082.45
2018-08-10T04:08:08.539Z,100087.20
2018-08-10T04:08:39.648Z,100089.14
2018-08-10T04:09:10.854Z,100085.36
2018-08-10T04:09:42.104Z,100084.00
2018-08-10T04:10:13.255Z,100080.56
2018-08-10T04:10:44.437Z,100092.61
2018-08-10T04:11:15.817Z,100086.50
2018-08-10T04:11:47.057Z,100090.57
2018-08-10T04:12:18.352Z,100092.17
2018-08-10T04:12:49.548Z,100092.66
2018-08-10T04:13:20.668Z,100088.30
2018-08-10T04:13:51.788Z,100090.57
2018-08-10T04:14:22.893Z,100094.18
2018-08-10T04:14:54.104Z,100100.06
2018-08-10T04:15:25.326Z,100096.19
2018-08-10T04:15:56.576Z,100096.68
2018-08-10T04:16:27.683Z,100096.08
2018-08-10T04:16:58.840Z,100094.56
2018-08-10T04:17:30.024Z,100098.17
2018-08-10T04:18:01.141Z,100099.31
2018-08-10T04:18:32.325Z,100094.27
2018-08-10T04:19:03.483Z,100094.15
2018-08-10T04:19:34.669Z,100097.57
2018-08-10T04:20:05.821Z,100099.36
2018-08-10T04:20:36.927Z,100097.34
2018-08-10T04:21:08.073Z,100097.05
2018-08-10T04:21:39.195Z,100098.80
2018-08-10T04:22:10.364Z,100094.51
2018-08-10T04:22:41.545Z,100100.63
2018-08-10T04:23:12.695Z,100095.95
2018-08-10T04:23:43.886Z,100097.33
2018-08-10T04:24:15.004Z,100097.55
2018-08-10T04:24:46.167Z,100097.61
2018-08-10T04:25:17.371Z,100096.93
2018-08-10T04:25:48.529Z,100101.10
2018-08-10T04:26:19.663Z,100100.80
2018-08-10T04:26:50.931Z,100099.03
2018-08-10T04:27:22.199Z,100099.94
2018-08-10T04:27:53.322Z,100104.14
2018-08-10T04:28:24.587Z,100098.64
2018-08-10T04:28:55.777Z,100101.53
2018-08-10T04:29:26.932Z,100102.36
2018-08-10T04:29:58.035Z,100097.52
2018-08-10T04:30:29.281Z,100099.18
2018-08-10T04:31:00.449Z,100093.95
2018-08-10T04:31:31.579Z,100098.86
2018-08-10T04:32:02.692Z,100098.09
2018-08-10T04:32:33.894Z,100097.28
2018-08-10T04:33:04.999Z,100094.93
2018-08-10T04:33:36.118Z,100097.36
2018-08-10T04:34:07.371Z,100099.27
2018-08-10T04:34:38.667Z,100093.08
2018-08-10T04:35:09.899Z,100093.41
2018-08-10T04:35:41.059Z,100095.18
2018-08-10T04:36:12.178Z,100098.69
2018-08-10T04:36:43.413Z,100094.52
2018-08-10T04:37:14.632Z,100100.17
2018-08-10T04:37:45.809Z,100095.09
2018-08-10T04:38:16.924Z,100073.91
2018-08-10T04:38:48.152Z,100103.82
2018-08-10T04:39:19.344Z,100104.02
2018-08-10T04:39:50.569Z,100102.82
2018-08-10T04:40:21.748Z,100105.02
2018-08-10T04:40:52.894Z,100099.38
2018-08-10T04:41:24.072Z,100103.22
2018-08-10T04:41:55.203Z,100099.78
2018-08-10T04:42:26.501Z,100105.31
2018-08-10T04:42:57.845Z,100109.06
2018-08-10T04:43:28.979Z,100101.80
2018-08-10T04:44:00.236Z,100095.30
2018-08-10T04:44:31.424Z,100098.63
2018-08-10T04:45:02.693Z,100097.91
2018-08-10T04:45:34.067Z,100099.30
2018-08-10T04:46:05.370Z,100100.94
2018-08-10T04:46:36.595Z,100106.02
2018-08-10T04:47:07.723Z,100102.02
2018-08-10T04:47:38.907Z,100103.50
2018-08-10T04:48:10.110Z,100108.97
2018-08-10T04:48:41.245Z,100113.06
2018-08-10T04:49:12.380Z,100103.06
2018-08-10T04:49:43.504Z,100101.63
2018-08-10T04:50:14.669Z,100106.94
2018-08-10T04:50:45.802Z,100112.44
2018-08-10T04:51:16.979Z,100111.41
2018-08-10T04:51:48.212Z,100105.47
2018-08-10T04:52:19.389Z,100102.69
2018-08-10T04:52:50.512Z,100104.36
2018-08-10T04:53:21.718Z,100108.08
2018-08-10T04:53:52.844Z,100110.80
2018-08-10T04:54:24.047Z,100115.11
2018-08-10T04:54:55.278Z,100114.33
2018-08-10T04:55:26.433Z,100110.69
2018-08-10T04:55:57.593Z,100115.84
2018-08-10T04:56:28.820Z,100112.75
2018-08-10T04:56:59.946Z,100111.20
2018-08-10T04:57:31.115Z,100110.89
2018-08-10T04:58:02.227Z,100115.72
2018-08-10T04:58:33.441Z,100109.11
2018-08-10T04:59:04.567Z,100111.91
2018-08-10T04:59:35.742Z,100117.62
2018-08-10T05:00:06.912Z,100116.78
2018-08-10T05:00:38.287Z,100110.20
2018-08-10T05:01:09.452Z,100115.16
2018-08-10T05:01:40.611Z,100115.84
2018-08-10T05:02:11.997Z,100113.11
2018-08-10T05:02:43.107Z,100113.90
2018-08-10T05:03:14.227Z,100122.83
2018-08-10T05:03:45.472Z,100115.88
2018-08-10T05:04:16.538Z,100116.41
2018-08-10T05:04:47.770Z,100111.42
2018-08-10T05:05:19.012Z,100117.98
2018-08-10T05:05:50.203Z,100120.98
2018-08-10T05:06:21.336Z,100120.59
2018-08-10T05:06:52.626Z,100118.66
2018-08-10T05:07:23.749Z,100117.95
2018-08-10T05:07:54.868Z,100118.98
2018-08-10T05:08:26.053Z,100115.57
2018-08-10T05:08:57.347Z,100119.56
2018-08-10T05:09:28.458Z,100121.95
2018-08-10T05:09:59.981Z,100123.68
2018-08-10T05:10:31.195Z,100118.94
2018-08-10T05:11:02.422Z,100127.52
2018-08-10T05:11:33.604Z,100125.91
2018-08-10T05:12:04.773Z,100121.31
2018-08-10T05:12:35.976Z,100123.62
2018-08-10T05:13:07.155Z,100121.02
2018-08-10T05:13:38.358Z,100122.20
2018-08-10T05:14:09.564Z,100125.36
2018-08-10T05:14:40.743Z,100125.01
2018-08-10T05:15:11.898Z,100126.34
2018-08-10T05:15:43.151Z,100121.87
2018-08-10T05:16:14.340Z,100121.67
2018-08-10T05:16:45.516Z,100122.75
2018-08-10T05:17:16.640Z,100117.00
2018-08-10T05:17:47.867Z,100118.94
2018-08-10T05:18:18.985Z,100120.55
2018-08-10T05:18:50.099Z,100121.44
2018-08-10T05:19:21.272Z,100119.39
2018-08-10T05:19:52.408Z,100120.67
2018-08-10T05:20:23.646Z,100123.61
2018-08-10T05:20:54.821Z,100120.78
2018-08-10T05:21:25.945Z,100124.03
2018-08-10T05:21:57.178Z,100121.48
2018-08-10T05:22:28.364Z,100123.20
2018-08-10T05:22:59.632Z,100121.77
2018-08-10T05:23:30.764Z,100126.06
2018-08-10T05:24:01.939Z,100123.38
2018-08-10T05:24:33.072Z,100125.54
2018-08-10T05:25:04.347Z,100126.34
2018-08-10T05:25:35.748Z,100127.14
2018-08-10T05:26:07.102Z,100123.98
2018-08-10T05:26:38.224Z,100119.57
2018-08-10T05:27:09.401Z,100120.48
2018-08-10T05:27:40.539Z,100125.52
2018-08-10T05:28:11.667Z,100121.11
2018-08-10T05:28:42.790Z,100122.63
2018-08-10T05:29:13.957Z,100127.53
2018-08-10T05:29:45.080Z,100128.75
2018-08-10T05:30:16.237Z,100124.41
2018-08-10T05:30:47.474Z,100121.74
2018-08-10T05:31:18.588Z,100120.12
2018-08-10T05:31:49.748Z,100116.48
2018-08-10T05:32:20.912Z,100123.86
2018-08-10T05:32:52.089Z,100120.41
2018-08-10T05:33:23.224Z,100118.59
2018-08-10T05:33:54.437Z,100124.89
2018-08-10T05:34:25.555Z,100121.20
2018-08-10T05:34:56.763Z,100120.30
2018-08-10T05:35:28.127Z,100117.97
2018-08-10T05:35:59.313Z,100119.80
2018-08-10T05:36:30.656Z,100119.98
2018-08-10T05:37:01.929Z,100122.98
2018-08-10T05:37:33.444Z,100123.66
2018-08-10T05:38:04.729Z,100123.66
2018-08-10T05:38:35.865Z,100119.37
2018-08-10T05:39:07.114Z,100118.56
2018-08-10T05:39:38.346Z,100121.14
2018-08-10T05:40:09.507Z,100122.94
2018-08-10T05:40:40.709Z,100117.72
2018-08-10T05:41:11.962Z,100118.10
2018-08-10T05:41:43.082Z,100121.13
2018-08-10T05:42:14.252Z,100117.79
2018-08-10T05:42:45.433Z,100118.75
2018-08-10T05:43:16.680Z,100120.64
2018-08-10T05:43:47.879Z,100119.55
2018-08-10T05:44:19.007Z,100116.89
2018-08-10T05:44:50.141Z,100123.30
2018-08-10T05:45:21.504Z,100117.81
2018-08-10T05:45:52.673Z,100116.95
2018-08-10T05:46:23.968Z,100120.25
2018-08-10T05:46:55.081Z,100121.56
2018-08-10T05:47:26.333Z,100121.02
2018-08-10T05:47:57.526Z,100122.47
2018-08-10T05:48:28.769Z,100120.25
2018-08-10T05:49:00.012Z,100122.56
2018-08-10T05:49:31.153Z,100121.04
2018-08-10T05:50:02.538Z,100118.38
2018-08-10T05:50:33.717Z,100123.77
2018-08-10T05:51:05.006Z,100124.17
2018-08-10T05:51:36.081Z,100122.79
2018-08-10T05:52:07.269Z,100123.97
2018-08-10T05:52:38.443Z,100125.03
2018-08-10T05:53:09.604Z,100124.13
2018-08-10T05:53:40.756Z,100121.44
2018-08-10T05:54:11.940Z,100129.28
2018-08-10T05:54:43.436Z,100133.41
2018-08-10T05:55:14.877Z,100127.95
2018-08-10T05:55:46.241Z,100128.58